createdAt,value
2022-10-12T00:01:34.595Z,53.92
2022-10-12T00:04:01.654Z,51.65
2022-10-12T00:06:29.071Z,50.10
2022-10-12T00:08:56.077Z,51.22
2022-10-12T00:11:25.793Z,54.17
2022-10-12T00:13:53.994Z,51.53
2022-10-12T00:16:22.787Z,51.28
2022-10-12T00:18:54.021Z,51.83
2022-10-12T00:21:21.442Z,51.13
2022-10-12T00:23:48.415Z,54.80
2022-10-12T00:26:23.580Z,52.88
2022-10-12T00:28:57.239Z,54.83
2022-10-12T00:31:24.502Z,47.13
2022-10-12T00:33:51.605Z,50.17
2022-10-12T00:36:28.193Z,47.53
2022-10-12T00:38:56.450Z,46.45
2022-10-12T00:41:27.408Z,46.55
2022-10-12T00:43:58.270Z,46.28
2022-10-12T00:46:39.784Z,48.70
2022-10-12T00:49:23.519Z,49.25
2022-10-12T00:51:58.782Z,42.40
2022-10-12T00:54:33.170Z,44.55
2022-10-12T00:57:02.051Z,47.20
2022-10-12T00:59:39.777Z,47.58
2022-10-12T01:02:06.839Z,45.10
2022-10-12T01:04:33.957Z,46.20
2022-10-12T01:07:01.819Z,47.35
2022-10-12T01:09:29.777Z,44.75
2022-10-12T01:12:00.015Z,45.28
2022-10-12T01:14:27.116Z,45.65
2022-10-12T01:17:30.436Z,44.78
2022-10-12T01:20:15.530Z,44.08
2022-10-12T01:23:12.842Z,45.17
2022-10-12T01:26:01.345Z,41.40
2022-10-12T01:28:49.151Z,42.75
2022-10-12T01:31:37.746Z,42.72
2022-10-12T01:34:18.409Z,43.45
2022-10-12T01:36:49.248Z,42.28
2022-10-12T01:39:25.053Z,44.05
2022-10-12T01:41:57.311Z,43.17
2022-10-12T01:44:26.249Z,43.55
2022-10-12T01:46:55.834Z,43.70
2022-10-12T01:49:30.771Z,40.80
2022-10-12T01:52:21.303Z,43.72
2022-10-12T01:55:06.186Z,40.28
2022-10-12T01:57:54.679Z,42.60
2022-10-12T02:00:21.753Z,43.08
2022-10-12T02:03:14.323Z,42.72
2022-10-12T02:05:47.388Z,41.72
2022-10-12T02:08:28.047Z,43.67
2022-10-12T02:11:10.826Z,40.30
2022-10-12T02:13:47.911Z,40.03
2022-10-12T02:16:20.643Z,44.67
2022-10-12T02:18:52.003Z,43.03
2022-10-12T02:21:27.053Z,41.78
2022-10-12T02:23:57.009Z,42.60
2022-10-12T02:26:24.481Z,41.55
2022-10-12T02:28:52.284Z,42.38
2022-10-12T02:31:33.118Z,42.30
2022-10-12T02:34:28.485Z,40.75
2022-10-12T02:37:01.164Z,43.33
2022-10-12T02:39:38.815Z,44.05
2022-10-12T02:42:14.863Z,42.25
2022-10-12T02:44:43.553Z,45.22
2022-10-12T02:47:12.943Z,43.83
2022-10-12T02:49:42.044Z,43.63
2022-10-12T02:52:09.328Z,44.65
2022-10-12T02:54:37.120Z,44.20
2022-10-12T02:57:04.045Z,43.97
2022-10-12T02:59:31.142Z,44.22
2022-10-12T03:01:58.003Z,48.33
2022-10-12T03:04:24.925Z,45.38
2022-10-12T03:06:51.935Z,46.55
2022-10-12T03:09:18.890Z,45.80
2022-10-12T03:11:45.775Z,45.22
2022-10-12T03:14:15.114Z,44.67
2022-10-12T03:16:42.628Z,43.65
2022-10-12T03:19:09.755Z,45.83
2022-10-12T03:21:36.736Z,45.63
2022-10-12T03:24:03.718Z,44.60
2022-10-12T03:26:30.589Z,45.95
2022-10-12T03:28:57.641Z,45.53
2022-10-12T03:31:24.616Z,44.90
2022-10-12T03:33:51.617Z,44.42
2022-10-12T03:36:18.610Z,46.42
2022-10-12T03:38:45.506Z,45.85
2022-10-12T03:41:12.403Z,45.70
2022-10-12T03:43:39.344Z,46.28
2022-10-12T03:46:06.211Z,45.67
2022-10-12T03:48:33.180Z,42.92
2022-10-12T03:51:00.168Z,44.33
2022-10-12T03:53:27.175Z,45.10
2022-10-12T03:55:54.091Z,45.70
2022-10-12T03:58:21.090Z,44.58
2022-10-12T04:00:47.969Z,44.30
2022-10-12T04:03:14.822Z,44.33
2022-10-12T04:05:41.996Z,44.88
2022-10-12T04:08:09.435Z,43.45
2022-10-12T04:10:36.323Z,44.20
2022-10-12T04:13:03.340Z,43.58
2022-10-12T04:15:30.212Z,44.55
2022-10-12T04:17:57.128Z,43.25
2022-10-12T04:20:24.058Z,45.97
2022-10-12T04:22:50.936Z,44.50
2022-10-12T04:25:17.946Z,44.00
2022-10-12T04:27:44.882Z,42.28
2022-10-12T04:30:12.470Z,42.35
2022-10-12T04:32:39.382Z,45.03
2022-10-12T04:35:06.496Z,43.47
2022-10-12T04:37:33.362Z,44.75
2022-10-12T04:40:00.240Z,44.65
2022-10-12T04:42:27.169Z,41.45
2022-10-12T04:44:54.114Z,42.80
2022-10-12T04:47:21.193Z,44.95
2022-10-12T04:49:48.125Z,45.58
2022-10-12T04:52:14.978Z,45.10
2022-10-12T04:54:41.894Z,43.97
2022-10-12T04:57:08.976Z,49.70
2022-10-12T04:59:35.942Z,46.28
2022-10-12T05:02:02.842Z,51.88
2022-10-12T05:04:29.840Z,43.42
2022-10-12T05:06:56.815Z,53.05
2022-10-12T05:09:23.679Z,46.38
2022-10-12T05:11:50.659Z,42.50
2022-10-12T05:14:17.690Z,47.25
2022-10-12T05:16:44.588Z,51.05
2022-10-12T05:19:11.540Z,53.53
2022-10-12T05:21:40.361Z,46.03
2022-10-12T05:24:07.660Z,43.13
2022-10-12T05:26:34.796Z,48.25
2022-10-12T05:29:01.766Z,47.55
2022-10-12T05:31:28.714Z,43.80
2022-10-12T05:33:55.649Z,46.10
2022-10-12T05:36:22.608Z,47.55
2022-10-12T05:38:49.516Z,49.78
2022-10-12T05:41:16.549Z,51.00
2022-10-12T05:43:43.490Z,48.72
2022-10-12T05:46:14.262Z,48.55
2022-10-12T05:48:42.041Z,43.65
2022-10-12T05:51:08.981Z,44.55
2022-10-12T05:53:35.965Z,42.83
2022-10-12T05:56:02.912Z,42.85
2022-10-12T05:58:30.897Z,45.53
2022-10-12T06:01:27.248Z,43.78
2022-10-12T06:03:54.895Z,62.70
2022-10-12T06:06:22.493Z,48.47
2022-10-12T06:08:49.479Z,44.33
2022-10-12T06:11:16.405Z,44.67
2022-10-12T06:13:43.260Z,45.15
2022-10-12T06:16:10.163Z,42.90
2022-10-12T06:18:37.076Z,43.95
2022-10-12T06:23:50.937Z,43.85
2022-10-12T06:26:17.830Z,44.55
2022-10-12T06:28:44.955Z,46.67
2022-10-12T06:31:11.946Z,46.78
2022-10-12T06:33:38.864Z,45.65
2022-10-12T06:36:05.932Z,44.88
2022-10-12T06:38:32.926Z,43.75
2022-10-12T06:40:59.813Z,43.38
2022-10-12T06:43:26.748Z,42.60
2022-10-12T06:45:54.152Z,53.53
2022-10-12T06:48:21.034Z,45.15
2022-10-12T06:50:48.315Z,45.20
2022-10-12T06:53:15.317Z,42.88
2022-10-12T06:55:42.292Z,43.83
2022-10-12T06:58:09.273Z,42.65
2022-10-12T07:00:36.584Z,40.97
2022-10-12T07:03:04.002Z,45.28
2022-10-12T07:05:31.380Z,42.85
2022-10-12T07:07:58.405Z,46.67
2022-10-12T07:10:25.549Z,44.30
2022-10-12T07:12:52.539Z,42.78
2022-10-12T07:15:19.527Z,46.60
2022-10-12T07:17:46.494Z,47.25
2022-10-12T07:20:13.440Z,44.42
2022-10-12T07:22:40.443Z,51.08
2022-10-12T07:25:07.777Z,54.75
2022-10-12T07:27:34.654Z,59.20
2022-10-12T07:30:01.985Z,58.03
2022-10-12T07:32:28.866Z,54.30
2022-10-12T07:34:55.753Z,54.88
2022-10-12T07:37:22.710Z,55.60
2022-10-12T07:39:49.911Z,58.20
2022-10-12T07:42:19.248Z,71.60
2022-10-12T07:44:46.689Z,91.20
2022-10-12T07:47:13.643Z,85.72
2022-10-12T07:49:40.518Z,74.97
2022-10-12T07:52:07.491Z,69.28
2022-10-12T07:54:34.399Z,73.30
2022-10-12T07:57:01.387Z,70.78
2022-10-12T07:59:28.446Z,59.90
2022-10-12T08:01:55.443Z,54.15
2022-10-12T08:04:22.366Z,57.33
2022-10-12T08:06:49.294Z,64.32
2022-10-12T08:09:16.224Z,54.33
2022-10-12T08:11:43.300Z,52.13
2022-10-12T08:14:17.957Z,49.50
2022-10-12T08:16:45.583Z,48.22
2022-10-12T08:19:12.565Z,54.20
2022-10-12T08:21:39.868Z,58.88
2022-10-12T08:24:07.137Z,57.65
2022-10-12T08:26:34.063Z,57.70
2022-10-12T08:29:03.212Z,62.03
2022-10-12T08:31:30.372Z,53.63
2022-10-12T08:33:58.478Z,48.08
2022-10-12T08:36:27.557Z,49.17
2022-10-12T08:38:55.650Z,48.95
2022-10-12T08:41:53.197Z,47.80
2022-10-12T08:44:38.712Z,45.03
2022-10-12T08:47:16.866Z,42.60
2022-10-12T08:49:49.733Z,43.67
2022-10-12T08:52:41.632Z,38.80
2022-10-12T08:55:25.169Z,42.63
2022-10-12T08:57:52.154Z,43.47
2022-10-12T09:00:19.559Z,40.88
2022-10-12T09:03:29.652Z,39.67
2022-10-12T09:06:15.799Z,42.28
2022-10-12T09:09:03.147Z,37.40
2022-10-12T09:11:36.124Z,32.95
2022-10-12T09:14:06.539Z,33.47
2022-10-12T09:16:40.409Z,38.80
2022-10-12T09:19:21.421Z,34.10
2022-10-12T09:21:49.992Z,35.95
2022-10-12T09:24:39.357Z,33.83
2022-10-12T09:27:20.275Z,35.33
2022-10-12T09:29:55.245Z,35.75
2022-10-12T09:32:40.004Z,38.78
2022-10-12T09:35:08.334Z,35.88
2022-10-12T09:37:36.440Z,35.70
2022-10-12T09:40:03.695Z,39.17
2022-10-12T09:42:31.695Z,37.03
2022-10-12T09:45:02.815Z,35.40
2022-10-12T09:47:33.966Z,35.42
2022-10-12T09:50:06.226Z,31.73
2022-10-12T09:52:36.273Z,30.20
2022-10-12T09:55:11.394Z,33.97
2022-10-12T09:57:41.705Z,32.30
2022-10-12T10:00:29.352Z,32.92
2022-10-12T10:02:57.166Z,31.00
2022-10-12T10:05:31.511Z,32.53
2022-10-12T10:08:15.336Z,32.60
2022-10-12T10:10:56.044Z,33.70
2022-10-12T10:13:31.813Z,34.08
2022-10-12T10:16:10.269Z,29.65
2022-10-12T10:18:48.647Z,31.63
2022-10-12T10:21:29.664Z,32.97
2022-10-12T10:24:02.576Z,33.97
2022-10-12T10:26:51.181Z,33.38
2022-10-12T10:29:37.992Z,31.58
2022-10-12T10:32:37.336Z,30.85
2022-10-12T10:35:20.354Z,33.72
2022-10-12T10:37:55.776Z,32.83
2022-10-12T10:40:31.039Z,29.35
2022-10-12T10:43:05.910Z,33.25
2022-10-12T10:46:04.766Z,32.38
2022-10-12T10:48:53.448Z,30.73
2022-10-12T10:51:20.644Z,29.05
2022-10-12T10:53:49.837Z,31.50
2022-10-12T10:56:31.219Z,28.80
2022-10-12T10:59:09.819Z,29.40
2022-10-12T11:01:43.386Z,28.33
2022-10-12T11:04:17.675Z,28.52
2022-10-12T11:07:12.788Z,28.42
2022-10-12T11:09:45.983Z,29.15
2022-10-12T11:12:21.468Z,28.58
2022-10-12T11:14:57.533Z,27.25
2022-10-12T11:17:30.748Z,28.42
2022-10-12T11:20:21.383Z,27.77
2022-10-12T11:22:58.038Z,28.90
2022-10-12T11:25:49.188Z,29.13
2022-10-12T11:28:17.218Z,30.33
2022-10-12T11:30:51.123Z,31.05
2022-10-12T11:33:40.597Z,30.33
2022-10-12T11:36:11.317Z,29.40
2022-10-12T11:39:07.871Z,29.33
2022-10-12T11:41:44.964Z,28.65
2022-10-12T11:44:39.034Z,29.40
2022-10-12T11:47:16.554Z,29.50
2022-10-12T11:49:46.426Z,30.27
2022-10-12T11:52:13.555Z,30.40
2022-10-12T11:54:51.723Z,31.80
2022-10-12T11:57:32.908Z,32.05
2022-10-12T12:00:07.510Z,30.63
2022-10-12T12:02:41.391Z,30.85
2022-10-12T12:05:16.920Z,30.65
2022-10-12T12:07:56.841Z,29.95
2022-10-12T12:10:27.862Z,28.48
2022-10-12T12:13:18.283Z,29.38
2022-10-12T12:15:49.732Z,30.42
2022-10-12T12:18:24.820Z,29.55
2022-10-12T12:21:10.511Z,30.17
2022-10-12T12:23:50.287Z,30.75
2022-10-12T12:26:19.365Z,30.73
2022-10-12T12:28:51.550Z,29.83
2022-10-12T12:31:24.602Z,30.90
2022-10-12T12:34:06.314Z,32.13
2022-10-12T12:36:37.041Z,32.40
2022-10-12T12:39:07.011Z,31.73
2022-10-12T12:41:56.392Z,31.88
2022-10-12T12:44:46.415Z,29.40
2022-10-12T12:50:02.677Z,29.00
2022-10-12T12:52:39.891Z,29.48
2022-10-12T12:55:40.994Z,28.88
2022-10-12T12:58:19.099Z,29.88
2022-10-12T13:01:04.233Z,28.60
2022-10-12T13:03:43.295Z,28.05
2022-10-12T13:06:40.924Z,28.98
2022-10-12T13:09:40.774Z,29.92
2022-10-12T13:12:14.081Z,27.08
2022-10-12T13:15:19.062Z,29.33
2022-10-12T13:18:28.382Z,27.10
2022-10-12T13:21:01.222Z,26.27
2022-10-12T13:23:28.823Z,28.08
2022-10-12T13:26:06.586Z,26.55
2022-10-12T13:28:39.815Z,28.70
2022-10-12T13:31:31.152Z,25.90
2022-10-12T13:33:57.975Z,28.60
2022-10-12T13:36:29.160Z,27.58
2022-10-12T13:39:07.453Z,29.58
2022-10-12T13:41:35.520Z,29.50
2022-10-12T13:44:06.001Z,30.83
2022-10-12T13:46:42.600Z,30.63
2022-10-12T13:49:26.521Z,31.52
2022-10-12T13:51:57.768Z,29.88
2022-10-12T13:54:28.453Z,29.50
2022-10-12T13:57:05.127Z,30.35
2022-10-12T13:59:38.075Z,30.67
2022-10-12T14:02:23.120Z,30.65
2022-10-12T14:04:54.858Z,32.35
2022-10-12T14:07:31.821Z,31.13
2022-10-12T14:10:06.042Z,32.03
2022-10-12T14:12:36.413Z,31.15
2022-10-12T14:15:05.443Z,30.67
2022-10-12T14:17:32.526Z,27.75
2022-10-12T14:20:39.021Z,30.42
2022-10-12T14:23:21.460Z,30.88
2022-10-12T14:25:57.193Z,30.42
2022-10-12T14:28:35.583Z,29.40
2022-10-12T14:31:02.958Z,30.00
2022-10-12T14:33:31.407Z,30.73
2022-10-12T14:36:25.910Z,29.23
2022-10-12T14:38:53.696Z,28.73
2022-10-12T14:41:43.353Z,29.17
2022-10-12T14:44:11.114Z,27.92
2022-10-12T14:47:07.308Z,30.88
2022-10-12T14:49:41.542Z,29.98
2022-10-12T14:52:36.359Z,30.95
2022-10-12T14:55:04.529Z,29.15
2022-10-12T14:57:32.654Z,29.45
2022-10-12T14:59:59.831Z,30.90
2022-10-12T15:02:29.587Z,30.30
2022-10-12T15:04:57.227Z,28.58
2022-10-12T15:07:30.971Z,31.73
2022-10-12T15:09:58.194Z,34.83
2022-10-12T15:12:26.774Z,32.53
2022-10-12T15:14:59.917Z,33.65
2022-10-12T15:17:27.210Z,34.08
2022-10-12T15:19:54.484Z,40.28
2022-10-12T15:22:24.517Z,44.30
2022-10-12T15:24:53.499Z,44.47
2022-10-12T15:27:20.634Z,42.33
2022-10-12T15:29:48.329Z,44.00
2022-10-12T15:32:17.787Z,40.75
2022-10-12T15:34:45.377Z,38.83
2022-10-12T15:37:12.895Z,38.65
2022-10-12T15:39:40.061Z,36.92
2022-10-12T15:42:07.196Z,34.53
2022-10-12T15:44:41.143Z,32.38
2022-10-12T15:47:10.697Z,35.75
2022-10-12T15:49:38.209Z,34.65
2022-10-12T15:52:10.647Z,37.15
2022-10-12T15:54:38.114Z,32.78
2022-10-12T15:57:07.119Z,31.92
2022-10-12T15:59:34.246Z,31.95
2022-10-12T16:02:01.416Z,32.17
2022-10-12T16:04:28.358Z,33.97
2022-10-12T16:06:55.490Z,33.65
2022-10-12T16:09:22.934Z,33.80
2022-10-12T16:11:50.276Z,36.08
2022-10-12T16:14:17.427Z,40.95
2022-10-12T16:16:44.373Z,36.78
2022-10-12T16:19:11.370Z,41.80
2022-10-12T16:21:38.430Z,36.63
2022-10-12T16:24:05.752Z,37.78
2022-10-12T16:26:32.660Z,39.58
2022-10-12T16:29:00.232Z,38.53
2022-10-12T16:31:27.190Z,40.65
2022-10-12T16:33:54.371Z,41.13
2022-10-12T16:36:21.426Z,38.30
2022-10-12T16:38:48.727Z,38.80
2022-10-12T16:41:17.000Z,37.05
2022-10-12T16:43:44.496Z,37.78
2022-10-12T16:46:11.481Z,40.53
2022-10-12T16:48:38.750Z,43.78
2022-10-12T16:51:10.095Z,38.53
2022-10-12T16:53:37.424Z,40.20
2022-10-12T16:56:05.197Z,40.35
2022-10-12T16:58:32.299Z,38.28
2022-10-12T17:00:59.297Z,37.88
2022-10-12T17:03:26.304Z,40.05
2022-10-12T17:06:00.502Z,39.97
2022-10-12T17:08:27.487Z,40.45
2022-10-12T17:10:55.408Z,38.95
2022-10-12T17:13:22.371Z,40.92
2022-10-12T17:15:49.305Z,40.38
2022-10-12T17:18:16.278Z,40.45
2022-10-12T17:20:43.212Z,39.97
2022-10-12T17:23:10.081Z,38.67
2022-10-12T17:25:36.967Z,40.42
2022-10-12T17:28:04.449Z,36.55
2022-10-12T17:30:31.536Z,35.28
2022-10-12T17:32:58.485Z,38.22
2022-10-12T17:35:25.405Z,37.10
2022-10-12T17:37:52.302Z,38.85
2022-10-12T17:40:19.518Z,38.72
2022-10-12T17:42:46.641Z,39.08
2022-10-12T17:45:13.840Z,39.13
2022-10-12T17:47:41.074Z,41.85
2022-10-12T17:50:08.576Z,44.83
2022-10-12T17:52:39.634Z,42.45
2022-10-12T17:55:09.422Z,42.38
2022-10-12T17:57:42.294Z,45.35
2022-10-12T18:00:09.969Z,42.42
2022-10-12T18:02:36.875Z,44.53
2022-10-12T18:05:04.305Z,44.90
2022-10-12T18:07:31.523Z,44.80
2022-10-12T18:12:30.476Z,43.10
2022-10-12T18:14:57.754Z,43.42
2022-10-12T18:17:25.583Z,40.95
2022-10-12T18:19:52.855Z,42.08
2022-10-12T18:22:20.156Z,51.55
2022-10-12T18:24:48.991Z,44.83
2022-10-12T18:27:16.036Z,47.00
2022-10-12T18:29:43.228Z,46.67
2022-10-12T18:32:10.367Z,50.92
2022-10-12T18:34:40.770Z,55.63
2022-10-12T18:37:08.143Z,59.97
2022-10-12T18:39:35.120Z,56.00
2022-10-12T18:42:02.050Z,59.03
2022-10-12T18:44:28.970Z,63.95
2022-10-12T18:46:55.933Z,57.17
2022-10-12T18:49:23.414Z,52.33
2022-10-12T18:51:52.272Z,49.30
2022-10-12T18:54:19.451Z,52.95
2022-10-12T18:56:46.493Z,50.88
2022-10-12T18:59:17.528Z,55.22
2022-10-12T19:01:45.635Z,54.97
2022-10-12T19:04:13.348Z,55.40
2022-10-12T19:06:42.794Z,55.28
2022-10-12T19:09:13.309Z,55.65
2022-10-12T19:11:40.663Z,53.78
2022-10-12T19:14:10.726Z,53.65
2022-10-12T19:16:37.644Z,53.20
2022-10-12T19:19:14.817Z,53.80
2022-10-12T19:21:45.275Z,55.67
2022-10-12T19:24:14.278Z,58.88
2022-10-12T19:26:42.500Z,54.25
2022-10-12T19:29:09.426Z,54.47
2022-10-12T19:31:40.214Z,50.10
2022-10-12T19:34:09.582Z,52.17
2022-10-12T19:36:37.736Z,53.13
2022-10-12T19:39:08.628Z,52.35
2022-10-12T19:41:36.054Z,51.28
2022-10-12T19:44:03.970Z,54.05
2022-10-12T19:46:31.339Z,54.22
2022-10-12T19:48:59.563Z,52.58
2022-10-12T19:51:29.042Z,51.88
2022-10-12T19:53:57.948Z,53.72
2022-10-12T19:56:27.986Z,52.17
2022-10-12T19:58:57.236Z,50.42
2022-10-12T20:01:30.521Z,51.35
2022-10-12T20:03:57.505Z,53.38
2022-10-12T20:06:28.726Z,52.80
2022-10-12T20:08:57.941Z,53.08
2022-10-12T20:11:25.186Z,54.53
2022-10-12T20:13:52.585Z,55.17
2022-10-12T20:16:20.494Z,54.22
2022-10-12T20:18:47.539Z,54.13
2022-10-12T20:21:19.281Z,53.22
2022-10-12T20:23:47.324Z,53.58
2022-10-12T20:26:19.335Z,50.40
2022-10-12T20:28:49.650Z,49.17
2022-10-12T20:31:18.735Z,48.35
2022-10-12T20:33:49.371Z,47.03
2022-10-12T20:36:23.066Z,48.88
2022-10-12T20:38:50.323Z,45.72
2022-10-12T20:41:17.909Z,48.65
2022-10-12T20:43:45.373Z,50.53
2022-10-12T20:46:14.759Z,51.22
2022-10-12T20:48:44.540Z,44.63
2022-10-12T20:51:28.845Z,47.63
2022-10-12T20:53:59.165Z,54.03
2022-10-12T20:56:27.666Z,47.60
2022-10-12T20:58:57.748Z,49.70
2022-10-12T21:01:26.156Z,51.10
2022-10-12T21:03:54.248Z,52.22
2022-10-12T21:06:23.527Z,51.30
2022-10-12T21:08:52.285Z,52.10
2022-10-12T21:11:19.268Z,57.95
2022-10-12T21:13:46.948Z,60.55
2022-10-12T21:16:14.649Z,60.33
2022-10-12T21:18:42.827Z,53.65
2022-10-12T21:21:18.859Z,53.88
2022-10-12T21:23:58.411Z,59.53
2022-10-12T21:26:27.750Z,57.72
2022-10-12T21:28:54.983Z,54.85
2022-10-12T21:31:22.600Z,57.88
2022-10-12T21:33:49.547Z,56.08
2022-10-12T21:36:22.171Z,56.97
2022-10-12T21:38:50.388Z,58.97
2022-10-12T21:41:20.897Z,55.85
2022-10-12T21:43:49.222Z,55.85
2022-10-12T21:46:18.774Z,53.55
2022-10-12T21:48:46.300Z,54.03
2022-10-12T21:51:13.679Z,54.97
2022-10-12T21:53:41.288Z,55.08
2022-10-12T21:56:29.548Z,54.15
2022-10-12T21:58:58.153Z,48.95
2022-10-12T22:01:34.826Z,47.47
2022-10-12T22:04:04.435Z,47.08
2022-10-12T22:06:32.565Z,46.25
2022-10-12T22:09:05.075Z,45.88
2022-10-12T22:11:33.422Z,45.75
2022-10-12T22:14:03.132Z,46.40
2022-10-12T22:16:30.427Z,46.45
2022-10-12T22:19:02.358Z,46.97
2022-10-12T22:21:30.723Z,45.07
2022-10-12T22:23:58.480Z,47.22
2022-10-12T22:26:25.526Z,46.65
2022-10-12T22:28:52.464Z,45.75
2022-10-12T22:31:21.067Z,46.42
2022-10-12T22:33:48.096Z,45.20
2022-10-12T22:36:15.325Z,45.05
2022-10-12T22:38:43.158Z,45.38
2022-10-12T22:41:15.846Z,44.15
2022-10-12T22:43:42.806Z,46.92
2022-10-12T22:46:10.215Z,47.65
2022-10-12T22:48:37.746Z,46.15
2022-10-12T22:51:06.477Z,45.53
2022-10-12T22:53:33.782Z,45.95
2022-10-12T22:56:06.684Z,43.90
2022-10-12T23:01:06.553Z,44.70
2022-10-12T23:03:34.415Z,42.20
2022-10-12T23:06:01.544Z,42.47
2022-10-12T23:08:29.201Z,42.63
2022-10-12T23:11:01.656Z,41.70
2022-10-12T23:13:28.551Z,42.67
2022-10-12T23:15:55.434Z,43.55
2022-10-12T23:18:22.372Z,41.03
2022-10-12T23:20:49.271Z,40.90
2022-10-12T23:23:16.163Z,42.63
2022-10-12T23:25:43.067Z,42.30
2022-10-12T23:28:09.961Z,41.42
2022-10-12T23:30:38.359Z,44.30
2022-10-12T23:33:05.270Z,43.90
2022-10-12T23:35:32.415Z,42.25
2022-10-12T23:37:59.292Z,40.97
2022-10-12T23:40:26.201Z,40.47
2022-10-12T23:42:53.062Z,41.47
2022-10-12T23:45:19.947Z,41.92
2022-10-12T23:47:46.871Z,40.95
2022-10-12T23:50:13.723Z,42.60
2022-10-12T23:52:40.583Z,41.85
2022-10-12T23:55:08.018Z,40.53
2022-10-12T23:57:46.838Z,41.28
